Hovedside
METAR-TAF:

METAR-TAF

Lufthavner :

Ivalo, Finland

Ivalo lufthavn

breddegrad: 68-37N, lengdegrad: 027-25E, høyde over havet: 147 m

Gjeldene værobservasjon

Denne rapporten ble laget for 21 minutter siden, klokken 20:20 UTC
Vind 19 kt fra Vest-nordvest med vindkast opp mot 32 kt
Temperatur 0°C
Luftfuktighet 69%
Trykk 992 hPa
Sikt 10 km eller mer
Brutte skyer i en høyde av 2700 ft
Brutte skyer i en høyde av 6600 ft

METAR: EFIV 262020Z AUTO 30019G32KT 9999 BKN027 BKN066 M00/M05 Q0992

Tid: 23:41 (20:41 UTC)

Varsel

Denne rapporten ble laget for 3 timer og 9 minutter siden, klokken 17:32 UTC
Varsel gyldig fra 26. klokken 18 UTC til 26. klokken 20 UTC
Vind 14 kt fra Vest
Sikt 10 km eller mer
Spredte skyer i en høyde av 3500 ft

TAF: EFIV 261732Z 2618/2620 27014KT 9999 SCT035

Værobservasjoner og værvarsel for over 4000 flyplasser (METAR- og TAF-rapporter).

Tilgjengelige stasjoner er representert av de røde og gule prikkene på kartet.

Hold musepekeren over prikken for å se navnet på stasjonen.

Klikk så for å se værobservasjoner og -varsler.

For å forandre kartet kan du klikke på den grønne knappen med svart kryss for å zoome inn, på den grønne knappen med strek for å zoome ut, eller på de grønne pilene for å se tilstøtende kart.


METAR-TAF: